sensor_id;sensor_type;location;lat;lon;timestamp;P1;durP1;ratioP1;P2;durP2;ratioP2
67841;SDS011;54642;59.126;37.876;2022-08-03T00:02:25;19.67;;;8.80;;
67841;SDS011;54642;59.126;37.876;2022-08-03T00:04:51;20.30;;;8.30;;
67841;SDS011;54642;59.126;37.876;2022-08-03T00:07:17;18.52;;;8.57;;
67841;SDS011;54642;59.126;37.876;2022-08-03T00:09:43;22.48;;;9.52;;
67841;SDS011;54642;59.126;37.876;2022-08-03T00:12:09;24.45;;;10.68;;
67841;SDS011;54642;59.126;37.876;2022-08-03T00:14:35;22.23;;;9.70;;
67841;SDS011;54642;59.126;37.876;2022-08-03T00:17:01;23.20;;;9.07;;
67841;SDS011;54642;59.126;37.876;2022-08-03T00:19:27;17.83;;;8.38;;
67841;SDS011;54642;59.126;37.876;2022-08-03T00:21:53;21.70;;;8.10;;
67841;SDS011;54642;59.126;37.876;2022-08-03T00:24:19;22.65;;;7.72;;
67841;SDS011;54642;59.126;37.876;2022-08-03T00:26:45;15.15;;;8.20;;
67841;SDS011;54642;59.126;37.876;2022-08-03T00:29:11;25.25;;;8.55;;
67841;SDS011;54642;59.126;37.876;2022-08-03T00:31:37;16.35;;;8.57;;
67841;SDS011;54642;59.126;37.876;2022-08-03T00:34:03;20.05;;;8.15;;
67841;SDS011;54642;59.126;37.876;2022-08-03T00:36:28;19.52;;;6.88;;
67841;SDS011;54642;59.126;37.876;2022-08-03T00:38:54;14.65;;;5.97;;
67841;SDS011;54642;59.126;37.876;2022-08-03T00:41:21;12.73;;;6.68;;
67841;SDS011;54642;59.126;37.876;2022-08-03T00:43:47;10.98;;;6.63;;
67841;SDS011;54642;59.126;37.876;2022-08-03T00:46:13;13.65;;;5.60;;
67841;SDS011;54642;59.126;37.876;2022-08-03T00:48:39;8.90;;;5.85;;
67841;SDS011;54642;59.126;37.876;2022-08-03T00:51:05;11.57;;;5.90;;
67841;SDS011;54642;59.126;37.876;2022-08-03T00:53:31;20.05;;;7.22;;
67841;SDS011;54642;59.126;37.876;2022-08-03T00:55:59;16.75;;;7.00;;
67841;SDS011;54642;59.126;37.876;2022-08-03T00:58:24;16.17;;;6.15;;
67841;SDS011;54642;59.126;37.876;2022-08-03T01:00:50;8.90;;;5.57;;
67841;SDS011;54642;59.126;37.876;2022-08-03T01:03:16;11.52;;;5.85;;
67841;SDS011;54642;59.126;37.876;2022-08-03T01:06:27;14.05;;;6.43;;
67841;SDS011;54642;59.126;37.876;2022-08-03T01:11:11;17.42;;;7.80;;
67841;SDS011;54642;59.126;37.876;2022-08-03T01:16:27;14.93;;;7.68;;
67841;SDS011;54642;59.126;37.876;2022-08-03T01:19:12;15.73;;;7.60;;
67841;SDS011;54642;59.126;37.876;2022-08-03T01:24:55;21.55;;;11.43;;
67841;SDS011;54642;59.126;37.876;2022-08-03T01:27:53;18.10;;;11.57;;
67841;SDS011;54642;59.126;37.876;2022-08-03T01:30:22;22.23;;;11.60;;
67841;SDS011;54642;59.126;37.876;2022-08-03T01:33:04;16.52;;;9.35;;
67841;SDS011;54642;59.126;37.876;2022-08-03T01:36:16;16.75;;;10.23;;
67841;SDS011;54642;59.126;37.876;2022-08-03T01:38:26;24.63;;;13.05;;
67841;SDS011;54642;59.126;37.876;2022-08-03T01:40:56;33.35;;;15.32;;
67841;SDS011;54642;59.126;37.876;2022-08-03T01:43:26;21.30;;;11.85;;
67841;SDS011;54642;59.126;37.876;2022-08-03T01:45:55;34.63;;;14.82;;
67841;SDS011;54642;59.126;37.876;2022-08-03T01:48:22;23.55;;;10.52;;
67841;SDS011;54642;59.126;37.876;2022-08-03T01:50:50;45.00;;;18.88;;
67841;SDS011;54642;59.126;37.876;2022-08-03T01:53:19;20.98;;;10.45;;
67841;SDS011;54642;59.126;37.876;2022-08-03T01:55:46;33.38;;;14.52;;
67841;SDS011;54642;59.126;37.876;2022-08-03T01:58:14;30.25;;;14.93;;
67841;SDS011;54642;59.126;37.876;2022-08-03T02:00:42;32.65;;;15.73;;
67841;SDS011;54642;59.126;37.876;2022-08-03T02:03:10;57.20;;;36.15;;
67841;SDS011;54642;59.126;37.876;2022-08-03T02:05:40;63.03;;;38.40;;
67841;SDS011;54642;59.126;37.876;2022-08-03T02:08:10;49.05;;;25.45;;
67841;SDS011;54642;59.126;37.876;2022-08-03T02:10:39;44.47;;;24.00;;
67841;SDS011;54642;59.126;37.876;2022-08-03T02:13:07;68.53;;;37.60;;
67841;SDS011;54642;59.126;37.876;2022-08-03T02:15:36;56.53;;;33.53;;
67841;SDS011;54642;59.126;37.876;2022-08-03T02:18:04;50.03;;;27.77;;
67841;SDS011;54642;59.126;37.876;2022-08-03T02:20:32;50.60;;;23.77;;
67841;SDS011;54642;59.126;37.876;2022-08-03T02:23:00;26.65;;;14.48;;
67841;SDS011;54642;59.126;37.876;2022-08-03T02:25:26;26.52;;;13.00;;
67841;SDS011;54642;59.126;37.876;2022-08-03T02:27:55;43.95;;;16.95;;
67841;SDS011;54642;59.126;37.876;2022-08-03T02:30:26;30.90;;;15.48;;
67841;SDS011;54642;59.126;37.876;2022-08-03T02:32:57;38.35;;;18.67;;
67841;SDS011;54642;59.126;37.876;2022-08-03T02:35:25;33.05;;;15.55;;
67841;SDS011;54642;59.126;37.876;2022-08-03T02:37:55;21.50;;;12.20;;
67841;SDS011;54642;59.126;37.876;2022-08-03T02:40:25;11.95;;;7.57;;
67841;SDS011;54642;59.126;37.876;2022-08-03T02:42:54;16.35;;;7.50;;
67841;SDS011;54642;59.126;37.876;2022-08-03T02:45:24;11.85;;;5.72;;
67841;SDS011;54642;59.126;37.876;2022-08-03T02:47:52;9.77;;;5.80;;
67841;SDS011;54642;59.126;37.876;2022-08-03T02:50:22;11.57;;;5.53;;
67841;SDS011;54642;59.126;37.876;2022-08-03T02:52:50;22.98;;;12.63;;
67841;SDS011;54642;59.126;37.876;2022-08-03T02:55:18;10.15;;;5.18;;
67841;SDS011;54642;59.126;37.876;2022-08-03T02:57:46;10.60;;;5.90;;
67841;SDS011;54642;59.126;37.876;2022-08-03T03:00:14;14.40;;;5.28;;
67841;SDS011;54642;59.126;37.876;2022-08-03T03:02:40;14.48;;;5.38;;
67841;SDS011;54642;59.126;37.876;2022-08-03T03:05:07;8.55;;;5.47;;
67841;SDS011;54642;59.126;37.876;2022-08-03T03:07:35;18.42;;;9.70;;
67841;SDS011;54642;59.126;37.876;2022-08-03T03:10:03;13.35;;;6.75;;
67841;SDS011;54642;59.126;37.876;2022-08-03T03:12:30;22.13;;;6.70;;
67841;SDS011;54642;59.126;37.876;2022-08-03T03:14:57;30.23;;;12.70;;
67841;SDS011;54642;59.126;37.876;2022-08-03T03:17:23;36.33;;;14.48;;
67841;SDS011;54642;59.126;37.876;2022-08-03T03:19:50;34.42;;;14.57;;
67841;SDS011;54642;59.126;37.876;2022-08-03T03:22:16;24.55;;;10.68;;
67841;SDS011;54642;59.126;37.876;2022-08-03T03:24:43;22.35;;;9.50;;
67841;SDS011;54642;59.126;37.876;2022-08-03T03:27:12;31.02;;;10.68;;
67841;SDS011;54642;59.126;37.876;2022-08-03T03:29:39;21.85;;;10.30;;
67841;SDS011;54642;59.126;37.876;2022-08-03T03:32:05;24.77;;;10.63;;
67841;SDS011;54642;59.126;37.876;2022-08-03T03:34:31;25.10;;;10.40;;
67841;SDS011;54642;59.126;37.876;2022-08-03T03:36:58;25.25;;;10.98;;
67841;SDS011;54642;59.126;37.876;2022-08-03T03:39:24;31.63;;;11.75;;
67841;SDS011;54642;59.126;37.876;2022-08-03T03:41:50;28.40;;;18.95;;
67841;SDS011;54642;59.126;37.876;2022-08-03T03:44:16;28.35;;;19.77;;
67841;SDS011;54642;59.126;37.876;2022-08-03T03:46:42;31.73;;;17.60;;
67841;SDS011;54642;59.126;37.876;2022-08-03T03:49:07;31.10;;;16.42;;
67841;SDS011;54642;59.126;37.876;2022-08-03T03:51:34;23.98;;;11.65;;
67841;SDS011;54642;59.126;37.876;2022-08-03T03:54:02;22.05;;;10.88;;
67841;SDS011;54642;59.126;37.876;2022-08-03T03:56:31;31.10;;;17.02;;
67841;SDS011;54642;59.126;37.876;2022-08-03T03:58:57;24.80;;;12.15;;
67841;SDS011;54642;59.126;37.876;2022-08-03T04:01:24;17.27;;;9.13;;
67841;SDS011;54642;59.126;37.876;2022-08-03T04:03:50;14.70;;;8.85;;
67841;SDS011;54642;59.126;37.876;2022-08-03T04:06:16;15.98;;;8.10;;
67841;SDS011;54642;59.126;37.876;2022-08-03T04:09:01;16.20;;;8.43;;
67841;SDS011;54642;59.126;37.876;2022-08-03T04:11:50;15.75;;;9.05;;
67841;SDS011;54642;59.126;37.876;2022-08-03T04:14:24;20.27;;;9.20;;
67841;SDS011;54642;59.126;37.876;2022-08-03T04:17:00;17.23;;;9.50;;
67841;SDS011;54642;59.126;37.876;2022-08-03T04:22:10;15.25;;;8.15;;
67841;SDS011;54642;59.126;37.876;2022-08-03T04:24:39;19.33;;;9.43;;
67841;SDS011;54642;59.126;37.876;2022-08-03T04:27:08;23.13;;;11.40;;
67841;SDS011;54642;59.126;37.876;2022-08-03T04:29:38;15.40;;;10.48;;
67841;SDS011;54642;59.126;37.876;2022-08-03T04:32:08;16.60;;;9.15;;
67841;SDS011;54642;59.126;37.876;2022-08-03T04:34:35;11.93;;;7.82;;
67841;SDS011;54642;59.126;37.876;2022-08-03T04:37:02;15.52;;;8.10;;
67841;SDS011;54642;59.126;37.876;2022-08-03T04:39:35;17.60;;;7.97;;
67841;SDS011;54642;59.126;37.876;2022-08-03T04:42:03;19.45;;;7.85;;
67841;SDS011;54642;59.126;37.876;2022-08-03T04:44:34;17.70;;;8.85;;
67841;SDS011;54642;59.126;37.876;2022-08-03T04:47:02;19.20;;;9.27;;
67841;SDS011;54642;59.126;37.876;2022-08-03T04:49:29;18.83;;;8.02;;
67841;SDS011;54642;59.126;37.876;2022-08-03T04:51:55;18.95;;;7.55;;
67841;SDS011;54642;59.126;37.876;2022-08-03T04:54:21;20.40;;;8.95;;
67841;SDS011;54642;59.126;37.876;2022-08-03T04:56:47;22.17;;;8.68;;
67841;SDS011;54642;59.126;37.876;2022-08-03T04:59:12;19.13;;;8.15;;
67841;SDS011;54642;59.126;37.876;2022-08-03T05:01:39;13.32;;;7.50;;
67841;SDS011;54642;59.126;37.876;2022-08-03T05:04:06;14.73;;;6.43;;
67841;SDS011;54642;59.126;37.876;2022-08-03T05:06:32;11.82;;;6.20;;
67841;SDS011;54642;59.126;37.876;2022-08-03T05:08:58;14.15;;;6.78;;
67841;SDS011;54642;59.126;37.876;2022-08-03T05:11:24;15.68;;;7.00;;
67841;SDS011;54642;59.126;37.876;2022-08-03T05:13:49;9.30;;;6.80;;
67841;SDS011;54642;59.126;37.876;2022-08-03T05:16:15;13.35;;;8.43;;
67841;SDS011;54642;59.126;37.876;2022-08-03T05:18:41;10.75;;;5.03;;
67841;SDS011;54642;59.126;37.876;2022-08-03T05:21:08;6.78;;;3.95;;
67841;SDS011;54642;59.126;37.876;2022-08-03T05:23:34;6.47;;;4.07;;
67841;SDS011;54642;59.126;37.876;2022-08-03T05:26:00;8.93;;;5.05;;
67841;SDS011;54642;59.126;37.876;2022-08-03T05:28:26;12.27;;;6.07;;
67841;SDS011;54642;59.126;37.876;2022-08-03T05:30:52;7.22;;;4.38;;
67841;SDS011;54642;59.126;37.876;2022-08-03T05:33:18;9.35;;;6.65;;
67841;SDS011;54642;59.126;37.876;2022-08-03T05:35:43;7.00;;;3.58;;
67841;SDS011;54642;59.126;37.876;2022-08-03T05:38:09;12.50;;;9.00;;
67841;SDS011;54642;59.126;37.876;2022-08-03T05:40:35;14.27;;;8.55;;
67841;SDS011;54642;59.126;37.876;2022-08-03T05:43:01;10.65;;;5.07;;
67841;SDS011;54642;59.126;37.876;2022-08-03T05:45:27;6.85;;;5.03;;
67841;SDS011;54642;59.126;37.876;2022-08-03T05:47:53;7.18;;;4.50;;
67841;SDS011;54642;59.126;37.876;2022-08-03T05:50:19;8.10;;;5.05;;
67841;SDS011;54642;59.126;37.876;2022-08-03T05:52:45;10.32;;;4.53;;
67841;SDS011;54642;59.126;37.876;2022-08-03T05:55:11;6.82;;;4.47;;
67841;SDS011;54642;59.126;37.876;2022-08-03T05:57:38;11.13;;;7.55;;
67841;SDS011;54642;59.126;37.876;2022-08-03T06:00:08;13.07;;;3.75;;
67841;SDS011;54642;59.126;37.876;2022-08-03T06:02:38;8.45;;;4.57;;
67841;SDS011;54642;59.126;37.876;2022-08-03T06:05:04;11.90;;;7.72;;
67841;SDS011;54642;59.126;37.876;2022-08-03T06:07:31;10.43;;;5.63;;
67841;SDS011;54642;59.126;37.876;2022-08-03T06:09:57;8.70;;;6.50;;
67841;SDS011;54642;59.126;37.876;2022-08-03T06:12:23;11.32;;;6.10;;
67841;SDS011;54642;59.126;37.876;2022-08-03T06:14:49;7.82;;;5.18;;
67841;SDS011;54642;59.126;37.876;2022-08-03T06:17:15;7.78;;;5.88;;
67841;SDS011;54642;59.126;37.876;2022-08-03T06:19:41;15.75;;;12.23;;
67841;SDS011;54642;59.126;37.876;2022-08-03T06:22:06;12.40;;;8.88;;
67841;SDS011;54642;59.126;37.876;2022-08-03T06:24:32;11.57;;;7.35;;
67841;SDS011;54642;59.126;37.876;2022-08-03T06:26:58;21.88;;;10.80;;
67841;SDS011;54642;59.126;37.876;2022-08-03T06:29:24;12.80;;;8.23;;
67841;SDS011;54642;59.126;37.876;2022-08-03T06:31:50;13.70;;;8.52;;
67841;SDS011;54642;59.126;37.876;2022-08-03T06:34:15;15.98;;;9.25;;
67841;SDS011;54642;59.126;37.876;2022-08-03T06:36:41;21.73;;;9.43;;
67841;SDS011;54642;59.126;37.876;2022-08-03T06:39:07;13.68;;;7.78;;
67841;SDS011;54642;59.126;37.876;2022-08-03T06:41:33;16.42;;;8.27;;
67841;SDS011;54642;59.126;37.876;2022-08-03T06:43:59;14.40;;;8.32;;
67841;SDS011;54642;59.126;37.876;2022-08-03T06:46:25;18.70;;;10.48;;
67841;SDS011;54642;59.126;37.876;2022-08-03T06:48:51;19.50;;;10.05;;
67841;SDS011;54642;59.126;37.876;2022-08-03T06:51:16;30.63;;;13.32;;
67841;SDS011;54642;59.126;37.876;2022-08-03T06:53:42;30.73;;;11.88;;
67841;SDS011;54642;59.126;37.876;2022-08-03T06:56:08;31.25;;;14.70;;
67841;SDS011;54642;59.126;37.876;2022-08-03T06:58:34;35.70;;;15.50;;
67841;SDS011;54642;59.126;37.876;2022-08-03T07:01:00;48.88;;;18.83;;
67841;SDS011;54642;59.126;37.876;2022-08-03T07:03:26;24.05;;;8.60;;
67841;SDS011;54642;59.126;37.876;2022-08-03T07:05:57;41.20;;;17.27;;
67841;SDS011;54642;59.126;37.876;2022-08-03T07:08:23;37.83;;;17.33;;
67841;SDS011;54642;59.126;37.876;2022-08-03T07:10:49;24.45;;;12.85;;
67841;SDS011;54642;59.126;37.876;2022-08-03T07:13:14;28.23;;;13.20;;
67841;SDS011;54642;59.126;37.876;2022-08-03T07:15:40;32.78;;;14.70;;
67841;SDS011;54642;59.126;37.876;2022-08-03T07:18:06;33.72;;;14.48;;
67841;SDS011;54642;59.126;37.876;2022-08-03T07:20:32;22.60;;;10.63;;
67841;SDS011;54642;59.126;37.876;2022-08-03T07:22:58;27.20;;;10.98;;
67841;SDS011;54642;59.126;37.876;2022-08-03T07:25:24;32.00;;;10.10;;
67841;SDS011;54642;59.126;37.876;2022-08-03T07:27:50;25.30;;;8.48;;
67841;SDS011;54642;59.126;37.876;2022-08-03T07:30:16;12.43;;;7.07;;
67841;SDS011;54642;59.126;37.876;2022-08-03T07:32:42;22.55;;;7.70;;
67841;SDS011;54642;59.126;37.876;2022-08-03T07:35:08;16.00;;;9.48;;
67841;SDS011;54642;59.126;37.876;2022-08-03T07:37:35;15.63;;;8.15;;
67841;SDS011;54642;59.126;37.876;2022-08-03T07:40:02;14.13;;;7.95;;
67841;SDS011;54642;59.126;37.876;2022-08-03T07:42:29;15.70;;;8.70;;
67841;SDS011;54642;59.126;37.876;2022-08-03T07:44:56;22.70;;;10.10;;
67841;SDS011;54642;59.126;37.876;2022-08-03T07:47:23;16.67;;;10.40;;
67841;SDS011;54642;59.126;37.876;2022-08-03T07:49:52;14.35;;;11.30;;
67841;SDS011;54642;59.126;37.876;2022-08-03T07:52:18;16.00;;;9.95;;
67841;SDS011;54642;59.126;37.876;2022-08-03T07:55:04;14.95;;;9.57;;
67841;SDS011;54642;59.126;37.876;2022-08-03T07:57:31;11.60;;;8.57;;
67841;SDS011;54642;59.126;37.876;2022-08-03T07:59:57;13.32;;;8.23;;
67841;SDS011;54642;59.126;37.876;2022-08-03T08:02:23;10.60;;;6.47;;
67841;SDS011;54642;59.126;37.876;2022-08-03T08:04:49;11.98;;;5.13;;
67841;SDS011;54642;59.126;37.876;2022-08-03T08:07:15;12.07;;;8.70;;
67841;SDS011;54642;59.126;37.876;2022-08-03T08:09:41;12.82;;;6.35;;
67841;SDS011;54642;59.126;37.876;2022-08-03T08:12:07;14.70;;;6.47;;
67841;SDS011;54642;59.126;37.876;2022-08-03T08:14:34;17.30;;;5.85;;
67841;SDS011;54642;59.126;37.876;2022-08-03T08:17:00;18.35;;;6.65;;
67841;SDS011;54642;59.126;37.876;2022-08-03T08:19:26;10.85;;;5.18;;
67841;SDS011;54642;59.126;37.876;2022-08-03T08:21:52;8.57;;;6.18;;
67841;SDS011;54642;59.126;37.876;2022-08-03T08:24:18;13.55;;;6.07;;
67841;SDS011;54642;59.126;37.876;2022-08-03T08:26:43;18.58;;;5.88;;
67841;SDS011;54642;59.126;37.876;2022-08-03T08:29:09;10.48;;;5.50;;
67841;SDS011;54642;59.126;37.876;2022-08-03T08:31:35;13.65;;;4.90;;
67841;SDS011;54642;59.126;37.876;2022-08-03T08:34:01;20.63;;;6.13;;
67841;SDS011;54642;59.126;37.876;2022-08-03T08:36:31;23.65;;;6.75;;
67841;SDS011;54642;59.126;37.876;2022-08-03T08:38:58;18.65;;;6.78;;
67841;SDS011;54642;59.126;37.876;2022-08-03T08:41:24;16.52;;;7.38;;
67841;SDS011;54642;59.126;37.876;2022-08-03T08:43:50;14.52;;;7.35;;
67841;SDS011;54642;59.126;37.876;2022-08-03T08:46:16;10.93;;;6.05;;
67841;SDS011;54642;59.126;37.876;2022-08-03T08:48:44;13.77;;;6.90;;
67841;SDS011;54642;59.126;37.876;2022-08-03T08:51:11;14.23;;;6.07;;
67841;SDS011;54642;59.126;37.876;2022-08-03T08:53:38;10.80;;;4.82;;
67841;SDS011;54642;59.126;37.876;2022-08-03T08:56:05;16.15;;;4.30;;
67841;SDS011;54642;59.126;37.876;2022-08-03T08:58:37;19.52;;;5.60;;
67841;SDS011;54642;59.126;37.876;2022-08-03T09:01:11;11.05;;;2.70;;
67841;SDS011;54642;59.126;37.876;2022-08-03T09:03:37;16.40;;;3.35;;
67841;SDS011;54642;59.126;37.876;2022-08-03T09:06:03;11.52;;;3.33;;
67841;SDS011;54642;59.126;37.876;2022-08-03T09:08:30;5.47;;;3.13;;
67841;SDS011;54642;59.126;37.876;2022-08-03T09:10:57;7.47;;;3.67;;
67841;SDS011;54642;59.126;37.876;2022-08-03T09:13:23;8.40;;;3.35;;
67841;SDS011;54642;59.126;37.876;2022-08-03T09:16:02;10.93;;;3.47;;
67841;SDS011;54642;59.126;37.876;2022-08-03T09:18:41;11.90;;;4.75;;
67841;SDS011;54642;59.126;37.876;2022-08-03T09:21:12;14.32;;;6.93;;
67841;SDS011;54642;59.126;37.876;2022-08-03T09:23:43;7.53;;;4.00;;
67841;SDS011;54642;59.126;37.876;2022-08-03T09:26:10;6.38;;;3.50;;
67841;SDS011;54642;59.126;37.876;2022-08-03T09:28:36;7.43;;;2.38;;
67841;SDS011;54642;59.126;37.876;2022-08-03T09:31:02;7.35;;;4.03;;
67841;SDS011;54642;59.126;37.876;2022-08-03T09:33:28;7.57;;;3.00;;
67841;SDS011;54642;59.126;37.876;2022-08-03T09:35:53;10.40;;;2.40;;
67841;SDS011;54642;59.126;37.876;2022-08-03T09:40:51;12.88;;;5.03;;
67841;SDS011;54642;59.126;37.876;2022-08-03T09:43:18;11.18;;;4.43;;
67841;SDS011;54642;59.126;37.876;2022-08-03T09:45:44;8.00;;;3.10;;
67841;SDS011;54642;59.126;37.876;2022-08-03T09:50:50;5.15;;;3.13;;
67841;SDS011;54642;59.126;37.876;2022-08-03T09:53:20;6.45;;;2.40;;
67841;SDS011;54642;59.126;37.876;2022-08-03T09:55:56;7.72;;;2.40;;
67841;SDS011;54642;59.126;37.876;2022-08-03T09:58:24;5.97;;;2.75;;
67841;SDS011;54642;59.126;37.876;2022-08-03T10:00:52;5.70;;;2.05;;
67841;SDS011;54642;59.126;37.876;2022-08-03T10:03:23;5.00;;;2.80;;
67841;SDS011;54642;59.126;37.876;2022-08-03T10:05:50;5.30;;;1.98;;
67841;SDS011;54642;59.126;37.876;2022-08-03T10:08:17;4.30;;;2.10;;
67841;SDS011;54642;59.126;37.876;2022-08-03T10:10:44;5.75;;;2.13;;
67841;SDS011;54642;59.126;37.876;2022-08-03T10:13:15;4.82;;;3.10;;
67841;SDS011;54642;59.126;37.876;2022-08-03T10:18:09;4.90;;;2.58;;
67841;SDS011;54642;59.126;37.876;2022-08-03T10:20:36;5.68;;;2.20;;
67841;SDS011;54642;59.126;37.876;2022-08-03T10:23:07;6.70;;;4.30;;
67841;SDS011;54642;59.126;37.876;2022-08-03T10:25:35;4.57;;;2.55;;
67841;SDS011;54642;59.126;37.876;2022-08-03T10:28:03;9.98;;;7.63;;
67841;SDS011;54642;59.126;37.876;2022-08-03T10:30:31;5.47;;;3.65;;
67841;SDS011;54642;59.126;37.876;2022-08-03T10:35:23;3.22;;;1.75;;
67841;SDS011;54642;59.126;37.876;2022-08-03T10:40:23;5.63;;;2.67;;
67841;SDS011;54642;59.126;37.876;2022-08-03T10:42:53;4.47;;;2.53;;
67841;SDS011;54642;59.126;37.876;2022-08-03T10:45:22;6.30;;;2.45;;
67841;SDS011;54642;59.126;37.876;2022-08-03T10:47:50;5.40;;;2.47;;
67841;SDS011;54642;59.126;37.876;2022-08-03T10:50:21;6.78;;;2.65;;
67841;SDS011;54642;59.126;37.876;2022-08-03T11:01:06;3.88;;;2.60;;
67841;SDS011;54642;59.126;37.876;2022-08-03T11:03:33;9.32;;;2.83;;
67841;SDS011;54642;59.126;37.876;2022-08-03T11:06:25;5.20;;;2.90;;
67841;SDS011;54642;59.126;37.876;2022-08-03T11:11:39;5.72;;;2.53;;
67841;SDS011;54642;59.126;37.876;2022-08-03T11:14:08;4.75;;;2.45;;
67841;SDS011;54642;59.126;37.876;2022-08-03T11:16:48;7.85;;;2.47;;
67841;SDS011;54642;59.126;37.876;2022-08-03T11:19:17;3.88;;;2.15;;
67841;SDS011;54642;59.126;37.876;2022-08-03T11:27:31;3.90;;;3.17;;
67841;SDS011;54642;59.126;37.876;2022-08-03T11:35:17;3.05;;;2.08;;
67841;SDS011;54642;59.126;37.876;2022-08-03T11:40:37;7.43;;;2.58;;
67841;SDS011;54642;59.126;37.876;2022-08-03T11:43:06;10.77;;;3.60;;
67841;SDS011;54642;59.126;37.876;2022-08-03T11:48:38;6.05;;;2.88;;
67841;SDS011;54642;59.126;37.876;2022-08-03T11:51:17;8.88;;;3.50;;
67841;SDS011;54642;59.126;37.876;2022-08-03T11:53:53;9.05;;;2.40;;
67841;SDS011;54642;59.126;37.876;2022-08-03T11:56:21;5.05;;;2.40;;
67841;SDS011;54642;59.126;37.876;2022-08-03T11:58:47;7.95;;;4.57;;
67841;SDS011;54642;59.126;37.876;2022-08-03T12:01:14;12.23;;;3.72;;
67841;SDS011;54642;59.126;37.876;2022-08-03T12:03:43;6.07;;;3.42;;
67841;SDS011;54642;59.126;37.876;2022-08-03T12:06:10;4.90;;;2.42;;
67841;SDS011;54642;59.126;37.876;2022-08-03T12:08:39;6.50;;;4.50;;
67841;SDS011;54642;59.126;37.876;2022-08-03T12:11:06;8.27;;;4.30;;
67841;SDS011;54642;59.126;37.876;2022-08-03T12:16:09;11.95;;;5.78;;
67841;SDS011;54642;59.126;37.876;2022-08-03T12:18:42;14.75;;;8.70;;
67841;SDS011;54642;59.126;37.876;2022-08-03T12:21:09;7.60;;;3.00;;
67841;SDS011;54642;59.126;37.876;2022-08-03T12:23:36;14.40;;;4.85;;
67841;SDS011;54642;59.126;37.876;2022-08-03T12:26:07;14.95;;;3.88;;
67841;SDS011;54642;59.126;37.876;2022-08-03T12:28:34;9.65;;;3.00;;
67841;SDS011;54642;59.126;37.876;2022-08-03T12:31:07;7.32;;;3.30;;
67841;SDS011;54642;59.126;37.876;2022-08-03T12:36:30;9.18;;;3.90;;
67841;SDS011;54642;59.126;37.876;2022-08-03T12:38:58;7.22;;;2.70;;
67841;SDS011;54642;59.126;37.876;2022-08-03T12:41:29;4.15;;;3.25;;
67841;SDS011;54642;59.126;37.876;2022-08-03T12:43:58;6.22;;;3.00;;
67841;SDS011;54642;59.126;37.876;2022-08-03T12:46:28;6.00;;;2.78;;
67841;SDS011;54642;59.126;37.876;2022-08-03T12:54:06;6.25;;;2.85;;
67841;SDS011;54642;59.126;37.876;2022-08-03T12:56:32;13.15;;;3.78;;
67841;SDS011;54642;59.126;37.876;2022-08-03T12:58:58;6.45;;;4.28;;
67841;SDS011;54642;59.126;37.876;2022-08-03T13:01:24;10.18;;;7.25;;
67841;SDS011;54642;59.126;37.876;2022-08-03T13:03:52;9.13;;;3.30;;
67841;SDS011;54642;59.126;37.876;2022-08-03T13:06:24;5.25;;;2.67;;
67841;SDS011;54642;59.126;37.876;2022-08-03T13:09:00;11.25;;;4.65;;
67841;SDS011;54642;59.126;37.876;2022-08-03T13:11:30;16.58;;;5.30;;
67841;SDS011;54642;59.126;37.876;2022-08-03T13:13:57;10.10;;;4.55;;
67841;SDS011;54642;59.126;37.876;2022-08-03T13:16:23;12.38;;;5.32;;
67841;SDS011;54642;59.126;37.876;2022-08-03T13:18:49;14.25;;;6.07;;
67841;SDS011;54642;59.126;37.876;2022-08-03T13:21:17;9.85;;;4.03;;
67841;SDS011;54642;59.126;37.876;2022-08-03T13:23:44;11.20;;;4.88;;
67841;SDS011;54642;59.126;37.876;2022-08-03T13:26:10;5.22;;;3.65;;
67841;SDS011;54642;59.126;37.876;2022-08-03T13:28:37;9.70;;;4.30;;
67841;SDS011;54642;59.126;37.876;2022-08-03T13:31:04;11.70;;;4.65;;
67841;SDS011;54642;59.126;37.876;2022-08-03T13:33:31;10.73;;;4.28;;
67841;SDS011;54642;59.126;37.876;2022-08-03T13:35:57;8.20;;;3.80;;
67841;SDS011;54642;59.126;37.876;2022-08-03T13:38:23;12.13;;;4.03;;
67841;SDS011;54642;59.126;37.876;2022-08-03T13:40:50;8.00;;;3.00;;
67841;SDS011;54642;59.126;37.876;2022-08-03T13:43:17;10.68;;;2.50;;
67841;SDS011;54642;59.126;37.876;2022-08-03T13:45:43;14.93;;;4.57;;
67841;SDS011;54642;59.126;37.876;2022-08-03T13:48:09;12.32;;;4.93;;
67841;SDS011;54642;59.126;37.876;2022-08-03T13:50:34;6.95;;;3.47;;
67841;SDS011;54642;59.126;37.876;2022-08-03T13:53:00;9.30;;;2.75;;
67841;SDS011;54642;59.126;37.876;2022-08-03T13:55:26;7.40;;;2.60;;
67841;SDS011;54642;59.126;37.876;2022-08-03T13:57:52;9.15;;;3.70;;
67841;SDS011;54642;59.126;37.876;2022-08-03T14:00:18;9.48;;;3.85;;
67841;SDS011;54642;59.126;37.876;2022-08-03T14:02:48;16.20;;;5.55;;
67841;SDS011;54642;59.126;37.876;2022-08-03T14:05:14;8.60;;;3.10;;
67841;SDS011;54642;59.126;37.876;2022-08-03T14:07:40;15.57;;;9.80;;
67841;SDS011;54642;59.126;37.876;2022-08-03T14:10:06;10.63;;;3.72;;
67841;SDS011;54642;59.126;37.876;2022-08-03T14:12:32;12.20;;;3.70;;
67841;SDS011;54642;59.126;37.876;2022-08-03T14:14:59;8.65;;;2.60;;
67841;SDS011;54642;59.126;37.876;2022-08-03T14:17:25;7.05;;;2.92;;
67841;SDS011;54642;59.126;37.876;2022-08-03T14:19:51;5.38;;;2.80;;
67841;SDS011;54642;59.126;37.876;2022-08-03T14:22:17;3.40;;;2.17;;
67841;SDS011;54642;59.126;37.876;2022-08-03T14:24:42;7.65;;;3.03;;
67841;SDS011;54642;59.126;37.876;2022-08-03T14:27:08;8.45;;;2.83;;
67841;SDS011;54642;59.126;37.876;2022-08-03T14:29:34;7.50;;;3.55;;
67841;SDS011;54642;59.126;37.876;2022-08-03T14:32:00;6.05;;;3.60;;
67841;SDS011;54642;59.126;37.876;2022-08-03T14:34:26;4.90;;;3.45;;
67841;SDS011;54642;59.126;37.876;2022-08-03T14:36:52;9.85;;;7.30;;
67841;SDS011;54642;59.126;37.876;2022-08-03T14:39:18;5.93;;;2.60;;
67841;SDS011;54642;59.126;37.876;2022-08-03T14:41:43;13.23;;;2.33;;
67841;SDS011;54642;59.126;37.876;2022-08-03T14:44:09;4.45;;;2.10;;
67841;SDS011;54642;59.126;37.876;2022-08-03T14:46:35;7.38;;;2.75;;
67841;SDS011;54642;59.126;37.876;2022-08-03T14:49:01;9.05;;;2.65;;
67841;SDS011;54642;59.126;37.876;2022-08-03T14:51:27;6.70;;;4.25;;
67841;SDS011;54642;59.126;37.876;2022-08-03T14:53:54;9.18;;;4.10;;
67841;SDS011;54642;59.126;37.876;2022-08-03T14:56:19;11.77;;;4.32;;
67841;SDS011;54642;59.126;37.876;2022-08-03T14:58:45;6.15;;;3.25;;
67841;SDS011;54642;59.126;37.876;2022-08-03T15:01:11;9.77;;;5.07;;
67841;SDS011;54642;59.126;37.876;2022-08-03T15:03:37;26.25;;;14.70;;
67841;SDS011;54642;59.126;37.876;2022-08-03T15:06:03;10.77;;;4.15;;
67841;SDS011;54642;59.126;37.876;2022-08-03T15:08:29;11.77;;;4.20;;
67841;SDS011;54642;59.126;37.876;2022-08-03T15:10:55;7.95;;;4.97;;
67841;SDS011;54642;59.126;37.876;2022-08-03T15:13:21;13.40;;;4.05;;
67841;SDS011;54642;59.126;37.876;2022-08-03T15:15:47;12.18;;;3.47;;
67841;SDS011;54642;59.126;37.876;2022-08-03T15:18:14;8.88;;;4.63;;
67841;SDS011;54642;59.126;37.876;2022-08-03T15:20:40;8.23;;;4.80;;
67841;SDS011;54642;59.126;37.876;2022-08-03T15:23:06;11.43;;;2.97;;
67841;SDS011;54642;59.126;37.876;2022-08-03T15:25:31;10.65;;;3.58;;
67841;SDS011;54642;59.126;37.876;2022-08-03T15:27:57;10.95;;;4.22;;
67841;SDS011;54642;59.126;37.876;2022-08-03T15:30:23;5.93;;;3.30;;